sensor_id;sensor_type;location;lat;lon;timestamp;pressure;altitude;pressure_sealevel;temperature;humidity
84890;BME280;75153;52.222;5.160;2024-01-15T00:00:34;100321.53;;;2.16;79.91
84890;BME280;75153;52.222;5.160;2024-01-15T00:02:59;100319.50;;;2.18;80.85
84890;BME280;75153;52.222;5.160;2024-01-15T00:05:25;100314.84;;;2.09;79.90
84890;BME280;75153;52.222;5.160;2024-01-15T00:07:50;100309.06;;;2.07;78.49
84890;BME280;75153;52.222;5.160;2024-01-15T00:10:15;100303.66;;;2.08;79.88
84890;BME280;75153;52.222;5.160;2024-01-15T00:12:41;100298.44;;;2.08;79.82
84890;BME280;75153;52.222;5.160;2024-01-15T00:15:06;100296.88;;;2.07;79.80
84890;BME280;75153;52.222;5.160;2024-01-15T00:17:32;100296.63;;;2.09;80.09
84890;BME280;75153;52.222;5.160;2024-01-15T00:19:57;100295.25;;;2.06;79.46
84890;BME280;75153;52.222;5.160;2024-01-15T00:22:25;100288.59;;;1.98;79.46
84890;BME280;75153;52.222;5.160;2024-01-15T00:24:51;100286.19;;;1.97;79.30
84890;BME280;75153;52.222;5.160;2024-01-15T00:27:16;100276.97;;;2.01;80.11
84890;BME280;75153;52.222;5.160;2024-01-15T00:29:42;100276.59;;;1.97;79.44
84890;BME280;75153;52.222;5.160;2024-01-15T00:32:07;100278.41;;;1.97;79.60
84890;BME280;75153;52.222;5.160;2024-01-15T00:34:32;100282.22;;;1.94;78.86
84890;BME280;75153;52.222;5.160;2024-01-15T00:36:58;100279.44;;;1.96;78.96
84890;BME280;75153;52.222;5.160;2024-01-15T00:39:23;100273.78;;;1.99;78.87
84890;BME280;75153;52.222;5.160;2024-01-15T00:41:48;100274.56;;;1.99;79.31
84890;BME280;75153;52.222;5.160;2024-01-15T00:44:14;100269.16;;;2.01;79.29
84890;BME280;75153;52.222;5.160;2024-01-15T00:46:44;100268.13;;;2.02;78.94
84890;BME280;75153;52.222;5.160;2024-01-15T00:49:10;100273.66;;;2.06;79.21
84890;BME280;75153;52.222;5.160;2024-01-15T00:51:35;100268.03;;;2.09;79.04
84890;BME280;75153;52.222;5.160;2024-01-15T00:54:00;100263.84;;;2.08;79.48
84890;BME280;75153;52.222;5.160;2024-01-15T00:56:26;100265.22;;;2.10;79.46
84890;BME280;75153;52.222;5.160;2024-01-15T00:58:51;100265.75;;;2.00;78.80
84890;BME280;75153;52.222;5.160;2024-01-15T01:01:16;100261.13;;;2.02;79.32
84890;BME280;75153;52.222;5.160;2024-01-15T01:03:42;100254.22;;;2.08;79.02
84890;BME280;75153;52.222;5.160;2024-01-15T01:06:07;100265.53;;;2.02;78.75
84890;BME280;75153;52.222;5.160;2024-01-15T01:08:32;100257.28;;;2.05;78.96
84890;BME280;75153;52.222;5.160;2024-01-15T01:10:58;100256.38;;;2.11;79.22
84890;BME280;75153;52.222;5.160;2024-01-15T01:13:23;100251.63;;;2.08;78.90
84890;BME280;75153;52.222;5.160;2024-01-15T01:15:49;100262.84;;;2.20;79.02
84890;BME280;75153;52.222;5.160;2024-01-15T01:18:14;100258.22;;;2.22;79.02
84890;BME280;75153;52.222;5.160;2024-01-15T01:20:40;100254.56;;;2.23;79.22
84890;BME280;75153;52.222;5.160;2024-01-15T01:23:05;100248.72;;;2.16;79.22
84890;BME280;75153;52.222;5.160;2024-01-15T01:25:30;100255.16;;;2.25;79.33
84890;BME280;75153;52.222;5.160;2024-01-15T01:27:56;100250.06;;;2.31;79.28
84890;BME280;75153;52.222;5.160;2024-01-15T01:30:21;100249.28;;;2.30;79.34
84890;BME280;75153;52.222;5.160;2024-01-15T01:32:46;100246.09;;;2.28;79.18
84890;BME280;75153;52.222;5.160;2024-01-15T01:35:12;100246.44;;;2.32;79.48
84890;BME280;75153;52.222;5.160;2024-01-15T01:37:38;100241.03;;;2.33;79.23
84890;BME280;75153;52.222;5.160;2024-01-15T01:40:04;100249.63;;;2.34;79.61
84890;BME280;75153;52.222;5.160;2024-01-15T01:42:29;100242.38;;;2.36;79.83
84890;BME280;75153;52.222;5.160;2024-01-15T01:44:54;100242.47;;;2.29;81.05
84890;BME280;75153;52.222;5.160;2024-01-15T01:47:20;100248.38;;;2.24;81.64
84890;BME280;75153;52.222;5.160;2024-01-15T01:49:46;100250.75;;;2.26;81.18
84890;BME280;75153;52.222;5.160;2024-01-15T01:52:12;100260.28;;;2.44;80.51
84890;BME280;75153;52.222;5.160;2024-01-15T01:54:39;100258.13;;;2.41;80.27
84890;BME280;75153;52.222;5.160;2024-01-15T01:57:05;100254.16;;;2.50;80.27
84890;BME280;75153;52.222;5.160;2024-01-15T01:59:32;100255.97;;;2.61;79.86
84890;BME280;75153;52.222;5.160;2024-01-15T02:02:00;100274.50;;;2.65;80.53
84890;BME280;75153;52.222;5.160;2024-01-15T02:04:26;100272.50;;;2.55;81.58
84890;BME280;75153;52.222;5.160;2024-01-15T02:06:52;100276.88;;;2.43;82.36
84890;BME280;75153;52.222;5.160;2024-01-15T02:09:18;100267.72;;;2.29;82.80
84890;BME280;75153;52.222;5.160;2024-01-15T02:11:46;100261.91;;;2.15;83.88
84890;BME280;75153;52.222;5.160;2024-01-15T02:14:12;100258.22;;;2.34;82.45
84890;BME280;75153;52.222;5.160;2024-01-15T02:16:37;100248.59;;;2.23;82.57
84890;BME280;75153;52.222;5.160;2024-01-15T02:19:02;100257.41;;;2.10;83.68
84890;BME280;75153;52.222;5.160;2024-01-15T02:21:28;100252.66;;;2.07;83.35
84890;BME280;75153;52.222;5.160;2024-01-15T02:23:54;100248.78;;;1.98;84.47
84890;BME280;75153;52.222;5.160;2024-01-15T02:26:20;100242.13;;;2.02;84.43
84890;BME280;75153;52.222;5.160;2024-01-15T02:28:46;100247.56;;;2.12;84.20
84890;BME280;75153;52.222;5.160;2024-01-15T02:31:11;100240.31;;;2.14;84.25
84890;BME280;75153;52.222;5.160;2024-01-15T02:33:36;100245.19;;;2.11;84.47
84890;BME280;75153;52.222;5.160;2024-01-15T02:36:02;100237.84;;;2.08;84.69
84890;BME280;75153;52.222;5.160;2024-01-15T02:38:27;100237.06;;;2.07;84.73
84890;BME280;75153;52.222;5.160;2024-01-15T02:40:53;100241.34;;;2.13;84.91
84890;BME280;75153;52.222;5.160;2024-01-15T02:43:18;100243.06;;;2.19;84.44
84890;BME280;75153;52.222;5.160;2024-01-15T02:45:44;100239.09;;;2.17;84.69
84890;BME280;75153;52.222;5.160;2024-01-15T02:48:10;100233.09;;;2.28;84.14
84890;BME280;75153;52.222;5.160;2024-01-15T02:50:36;100232.88;;;2.30;84.21
84890;BME280;75153;52.222;5.160;2024-01-15T02:53:01;100232.06;;;2.29;83.84
84890;BME280;75153;52.222;5.160;2024-01-15T02:55:27;100235.16;;;2.38;83.55
84890;BME280;75153;52.222;5.160;2024-01-15T02:57:54;100231.16;;;2.23;84.16
84890;BME280;75153;52.222;5.160;2024-01-15T03:00:20;100228.13;;;2.27;84.08
84890;BME280;75153;52.222;5.160;2024-01-15T03:02:45;100229.13;;;2.14;84.90
84890;BME280;75153;52.222;5.160;2024-01-15T03:05:11;100225.06;;;2.18;84.44
84890;BME280;75153;52.222;5.160;2024-01-15T03:07:37;100213.53;;;2.14;85.22
84890;BME280;75153;52.222;5.160;2024-01-15T03:10:02;100220.66;;;2.18;84.58
84890;BME280;75153;52.222;5.160;2024-01-15T03:12:28;100224.84;;;2.19;84.56
84890;BME280;75153;52.222;5.160;2024-01-15T03:14:53;100226.78;;;2.24;84.60
84890;BME280;75153;52.222;5.160;2024-01-15T03:17:18;100229.91;;;2.14;84.88
84890;BME280;75153;52.222;5.160;2024-01-15T03:19:44;100227.09;;;2.16;84.82
84890;BME280;75153;52.222;5.160;2024-01-15T03:22:09;100236.28;;;2.18;84.39
84890;BME280;75153;52.222;5.160;2024-01-15T03:24:35;100240.44;;;2.19;84.91
84890;BME280;75153;52.222;5.160;2024-01-15T03:27:01;100248.59;;;2.23;84.68
84890;BME280;75153;52.222;5.160;2024-01-15T03:29:26;100253.13;;;2.28;84.98
84890;BME280;75153;52.222;5.160;2024-01-15T03:31:52;100244.28;;;2.29;84.56
84890;BME280;75153;52.222;5.160;2024-01-15T03:34:18;100233.56;;;2.25;84.38
84890;BME280;75153;52.222;5.160;2024-01-15T03:36:43;100221.00;;;2.22;84.39
84890;BME280;75153;52.222;5.160;2024-01-15T03:39:09;100219.63;;;2.19;84.22
84890;BME280;75153;52.222;5.160;2024-01-15T03:41:34;100218.84;;;2.19;84.22
84890;BME280;75153;52.222;5.160;2024-01-15T03:43:59;100206.75;;;2.13;84.41
84890;BME280;75153;52.222;5.160;2024-01-15T03:46:25;100204.69;;;2.03;84.98
84890;BME280;75153;52.222;5.160;2024-01-15T03:48:50;100201.56;;;2.01;84.99
84890;BME280;75153;52.222;5.160;2024-01-15T03:51:19;100204.56;;;1.98;85.08
84890;BME280;75153;52.222;5.160;2024-01-15T03:53:45;100205.03;;;1.95;84.85
84890;BME280;75153;52.222;5.160;2024-01-15T03:56:10;100199.72;;;1.90;84.89
84890;BME280;75153;52.222;5.160;2024-01-15T03:58:35;100186.38;;;1.86;85.04
84890;BME280;75153;52.222;5.160;2024-01-15T04:01:01;100194.41;;;1.85;85.03
84890;BME280;75153;52.222;5.160;2024-01-15T04:03:26;100195.84;;;1.80;84.85
84890;BME280;75153;52.222;5.160;2024-01-15T04:05:52;100193.72;;;1.89;84.51
84890;BME280;75153;52.222;5.160;2024-01-15T04:08:17;100186.25;;;1.81;85.05
84890;BME280;75153;52.222;5.160;2024-01-15T04:10:42;100185.25;;;1.82;84.94
84890;BME280;75153;52.222;5.160;2024-01-15T04:13:08;100178.13;;;1.89;84.92
84890;BME280;75153;52.222;5.160;2024-01-15T04:15:33;100176.28;;;1.78;84.91
84890;BME280;75153;52.222;5.160;2024-01-15T04:17:58;100177.97;;;1.72;85.07
84890;BME280;75153;52.222;5.160;2024-01-15T04:20:24;100172.44;;;1.69;85.70
84890;BME280;75153;52.222;5.160;2024-01-15T04:22:49;100177.44;;;1.70;85.06
84890;BME280;75153;52.222;5.160;2024-01-15T04:25:15;100173.69;;;1.66;85.16
84890;BME280;75153;52.222;5.160;2024-01-15T04:27:40;100170.88;;;1.68;85.15
84890;BME280;75153;52.222;5.160;2024-01-15T04:30:06;100168.59;;;1.71;85.34
84890;BME280;75153;52.222;5.160;2024-01-15T04:32:31;100172.13;;;1.77;84.93
84890;BME280;75153;52.222;5.160;2024-01-15T04:34:57;100173.13;;;1.76;84.63
84890;BME280;75153;52.222;5.160;2024-01-15T04:37:22;100174.38;;;1.73;85.01
84890;BME280;75153;52.222;5.160;2024-01-15T04:39:48;100175.94;;;1.74;84.88
84890;BME280;75153;52.222;5.160;2024-01-15T04:42:13;100185.91;;;1.77;84.85
84890;BME280;75153;52.222;5.160;2024-01-15T04:44:39;100176.41;;;1.83;84.21
84890;BME280;75153;52.222;5.160;2024-01-15T04:47:04;100174.59;;;1.84;84.20
84890;BME280;75153;52.222;5.160;2024-01-15T04:49:29;100167.63;;;1.96;83.62
84890;BME280;75153;52.222;5.160;2024-01-15T04:51:55;100164.00;;;1.97;83.53
84890;BME280;75153;52.222;5.160;2024-01-15T04:54:20;100155.53;;;2.01;83.39
84890;BME280;75153;52.222;5.160;2024-01-15T04:56:46;100149.06;;;1.92;83.89
84890;BME280;75153;52.222;5.160;2024-01-15T04:59:12;100141.06;;;1.94;84.26
84890;BME280;75153;52.222;5.160;2024-01-15T05:01:38;100148.19;;;1.98;84.18
84890;BME280;75153;52.222;5.160;2024-01-15T05:04:03;100155.16;;;1.98;84.20
84890;BME280;75153;52.222;5.160;2024-01-15T05:06:28;100151.34;;;2.00;84.01
84890;BME280;75153;52.222;5.160;2024-01-15T05:08:54;100149.97;;;1.98;84.47
84890;BME280;75153;52.222;5.160;2024-01-15T05:11:19;100147.03;;;1.94;84.92
84890;BME280;75153;52.222;5.160;2024-01-15T05:13:45;100141.72;;;1.89;85.34
84890;BME280;75153;52.222;5.160;2024-01-15T05:16:10;100142.63;;;1.95;85.04
84890;BME280;75153;52.222;5.160;2024-01-15T05:18:35;100147.94;;;2.00;84.58
84890;BME280;75153;52.222;5.160;2024-01-15T05:21:03;100139.03;;;1.84;85.63
84890;BME280;75153;52.222;5.160;2024-01-15T05:23:28;100139.25;;;1.83;86.34
84890;BME280;75153;52.222;5.160;2024-01-15T05:25:53;100148.28;;;1.92;85.88
84890;BME280;75153;52.222;5.160;2024-01-15T05:28:19;100152.16;;;2.01;85.20
84890;BME280;75153;52.222;5.160;2024-01-15T05:30:44;100147.81;;;1.95;85.54
84890;BME280;75153;52.222;5.160;2024-01-15T05:33:10;100144.69;;;1.93;85.70
84890;BME280;75153;52.222;5.160;2024-01-15T05:35:35;100148.19;;;1.98;85.60
84890;BME280;75153;52.222;5.160;2024-01-15T05:38:01;100149.31;;;1.91;86.03
84890;BME280;75153;52.222;5.160;2024-01-15T05:40:28;100147.72;;;1.90;85.66
84890;BME280;75153;52.222;5.160;2024-01-15T05:42:53;100149.19;;;1.97;85.66
84890;BME280;75153;52.222;5.160;2024-01-15T05:45:18;100148.97;;;1.99;85.59
84890;BME280;75153;52.222;5.160;2024-01-15T05:47:44;100157.88;;;2.03;85.65
84890;BME280;75153;52.222;5.160;2024-01-15T05:50:09;100177.69;;;2.04;85.51
84890;BME280;75153;52.222;5.160;2024-01-15T05:52:35;100172.25;;;2.06;85.11
84890;BME280;75153;52.222;5.160;2024-01-15T05:55:01;100174.19;;;1.98;85.47
84890;BME280;75153;52.222;5.160;2024-01-15T05:57:27;100176.22;;;1.96;84.94
84890;BME280;75153;52.222;5.160;2024-01-15T05:59:53;100159.44;;;1.69;85.53
84890;BME280;75153;52.222;5.160;2024-01-15T06:02:18;100163.06;;;1.68;85.84
84890;BME280;75153;52.222;5.160;2024-01-15T06:04:43;100148.91;;;1.64;86.09
84890;BME280;75153;52.222;5.160;2024-01-15T06:07:09;100143.50;;;1.65;85.96
84890;BME280;75153;52.222;5.160;2024-01-15T06:09:34;100137.75;;;1.63;86.17
84890;BME280;75153;52.222;5.160;2024-01-15T06:11:59;100135.16;;;1.63;86.13
84890;BME280;75153;52.222;5.160;2024-01-15T06:14:25;100139.75;;;1.61;86.45
84890;BME280;75153;52.222;5.160;2024-01-15T06:16:50;100147.94;;;1.65;86.36
84890;BME280;75153;52.222;5.160;2024-01-15T06:19:16;100140.78;;;1.60;86.66
84890;BME280;75153;52.222;5.160;2024-01-15T06:21:41;100152.31;;;1.64;86.49
84890;BME280;75153;52.222;5.160;2024-01-15T06:24:06;100136.38;;;1.61;86.59
84890;BME280;75153;52.222;5.160;2024-01-15T06:26:32;100129.50;;;1.66;86.61
84890;BME280;75153;52.222;5.160;2024-01-15T06:28:57;100130.28;;;1.67;86.67
84890;BME280;75153;52.222;5.160;2024-01-15T06:31:22;100122.59;;;1.60;86.77
84890;BME280;75153;52.222;5.160;2024-01-15T06:33:48;100135.91;;;1.52;86.81
84890;BME280;75153;52.222;5.160;2024-01-15T06:36:14;100136.09;;;1.39;87.31
84890;BME280;75153;52.222;5.160;2024-01-15T06:38:43;100134.09;;;1.41;88.08
84890;BME280;75153;52.222;5.160;2024-01-15T06:41:09;100129.28;;;1.56;86.76
84890;BME280;75153;52.222;5.160;2024-01-15T06:43:34;100124.94;;;1.50;87.02
84890;BME280;75153;52.222;5.160;2024-01-15T06:45:59;100127.47;;;1.56;86.72
84890;BME280;75153;52.222;5.160;2024-01-15T06:48:25;100118.06;;;1.55;86.86
84890;BME280;75153;52.222;5.160;2024-01-15T06:50:50;100123.50;;;1.66;86.40
84890;BME280;75153;52.222;5.160;2024-01-15T06:53:16;100119.78;;;1.62;86.71
84890;BME280;75153;52.222;5.160;2024-01-15T06:55:41;100137.97;;;1.62;86.67
84890;BME280;75153;52.222;5.160;2024-01-15T06:58:06;100152.53;;;1.63;87.04
84890;BME280;75153;52.222;5.160;2024-01-15T07:00:32;100161.13;;;1.63;87.00
84890;BME280;75153;52.222;5.160;2024-01-15T07:02:57;100163.41;;;1.71;86.59
84890;BME280;75153;52.222;5.160;2024-01-15T07:05:23;100156.63;;;1.70;85.88
84890;BME280;75153;52.222;5.160;2024-01-15T07:07:49;100149.81;;;1.46;87.06
84890;BME280;75153;52.222;5.160;2024-01-15T07:10:14;100146.31;;;1.52;86.89
84890;BME280;75153;52.222;5.160;2024-01-15T07:12:43;100135.91;;;1.52;86.57
84890;BME280;75153;52.222;5.160;2024-01-15T07:15:09;100144.41;;;1.47;87.03
84890;BME280;75153;52.222;5.160;2024-01-15T07:17:35;100149.78;;;1.34;87.56
84890;BME280;75153;52.222;5.160;2024-01-15T07:20:00;100152.19;;;1.47;87.12
84890;BME280;75153;52.222;5.160;2024-01-15T07:22:26;100146.75;;;1.49;86.89
84890;BME280;75153;52.222;5.160;2024-01-15T07:24:51;100139.41;;;1.46;87.06
84890;BME280;75153;52.222;5.160;2024-01-15T07:27:17;100138.97;;;1.49;87.42
84890;BME280;75153;52.222;5.160;2024-01-15T07:29:42;100129.47;;;1.43;87.22
84890;BME280;75153;52.222;5.160;2024-01-15T07:32:08;100143.25;;;1.43;87.60
84890;BME280;75153;52.222;5.160;2024-01-15T07:34:34;100146.31;;;1.52;87.13
84890;BME280;75153;52.222;5.160;2024-01-15T07:36:59;100153.66;;;1.55;87.38
84890;BME280;75153;52.222;5.160;2024-01-15T07:39:25;100145.66;;;1.56;87.17
84890;BME280;75153;52.222;5.160;2024-01-15T07:41:53;100140.69;;;1.67;86.72
84890;BME280;75153;52.222;5.160;2024-01-15T07:44:19;100135.16;;;1.63;86.76
84890;BME280;75153;52.222;5.160;2024-01-15T07:46:47;100137.75;;;1.63;86.70
84890;BME280;75153;52.222;5.160;2024-01-15T07:49:13;100131.75;;;1.63;86.40
84890;BME280;75153;52.222;5.160;2024-01-15T07:51:39;100129.59;;;1.60;86.81
84890;BME280;75153;52.222;5.160;2024-01-15T07:54:06;100133.91;;;1.54;86.53
84890;BME280;75153;52.222;5.160;2024-01-15T07:56:32;100138.16;;;1.48;87.01
84890;BME280;75153;52.222;5.160;2024-01-15T07:58:58;100135.47;;;1.55;86.99
84890;BME280;75153;52.222;5.160;2024-01-15T08:01:24;100134.47;;;1.56;86.73
84890;BME280;75153;52.222;5.160;2024-01-15T08:03:49;100133.44;;;1.57;86.27
84890;BME280;75153;52.222;5.160;2024-01-15T08:06:15;100129.81;;;1.58;86.58
84890;BME280;75153;52.222;5.160;2024-01-15T08:08:40;100136.84;;;1.57;86.64
84890;BME280;75153;52.222;5.160;2024-01-15T08:11:06;100146.88;;;1.54;87.14
84890;BME280;75153;52.222;5.160;2024-01-15T08:13:31;100157.84;;;1.56;86.91
84890;BME280;75153;52.222;5.160;2024-01-15T08:15:57;100166.66;;;1.55;87.01
84890;BME280;75153;52.222;5.160;2024-01-15T08:18:22;100173.22;;;1.57;87.07
84890;BME280;75153;52.222;5.160;2024-01-15T08:20:48;100166.00;;;1.60;86.58
84890;BME280;75153;52.222;5.160;2024-01-15T08:23:13;100171.84;;;1.55;86.74
84890;BME280;75153;52.222;5.160;2024-01-15T08:25:39;100154.69;;;1.54;86.43
84890;BME280;75153;52.222;5.160;2024-01-15T08:28:04;100154.56;;;1.49;86.54
84890;BME280;75153;52.222;5.160;2024-01-15T08:30:30;100141.69;;;1.54;86.30
84890;BME280;75153;52.222;5.160;2024-01-15T08:32:55;100141.03;;;1.59;86.44
84890;BME280;75153;52.222;5.160;2024-01-15T08:35:21;100131.94;;;1.49;86.46
84890;BME280;75153;52.222;5.160;2024-01-15T08:37:51;100130.28;;;1.55;86.40
84890;BME280;75153;52.222;5.160;2024-01-15T08:40:17;100137.38;;;1.48;86.23
84890;BME280;75153;52.222;5.160;2024-01-15T08:42:43;100135.59;;;1.60;85.75
84890;BME280;75153;52.222;5.160;2024-01-15T08:45:09;100138.06;;;1.55;85.55
84890;BME280;75153;52.222;5.160;2024-01-15T08:47:35;100142.72;;;1.53;86.09
84890;BME280;75153;52.222;5.160;2024-01-15T08:50:02;100146.09;;;1.53;86.54
84890;BME280;75153;52.222;5.160;2024-01-15T08:52:28;100158.53;;;1.63;86.29
84890;BME280;75153;52.222;5.160;2024-01-15T08:54:55;100168.25;;;1.56;86.46
84890;BME280;75153;52.222;5.160;2024-01-15T08:57:20;100153.97;;;1.47;86.42
84890;BME280;75153;52.222;5.160;2024-01-15T08:59:47;100146.31;;;1.52;86.19
84890;BME280;75153;52.222;5.160;2024-01-15T09:02:12;100143.38;;;1.48;86.00
84890;BME280;75153;52.222;5.160;2024-01-15T09:04:38;100149.00;;;1.45;86.04
84890;BME280;75153;52.222;5.160;2024-01-15T09:07:04;100145.19;;;1.60;85.38
84890;BME280;75153;52.222;5.160;2024-01-15T09:09:29;100139.41;;;1.46;85.65
84890;BME280;75153;52.222;5.160;2024-01-15T09:11:54;100148.88;;;1.40;86.45
84890;BME280;75153;52.222;5.160;2024-01-15T09:14:20;100146.53;;;1.50;86.25
84890;BME280;75153;52.222;5.160;2024-01-15T09:16:47;100147.34;;;1.51;86.54
84890;BME280;75153;52.222;5.160;2024-01-15T09:19:12;100135.38;;;1.62;85.63
84890;BME280;75153;52.222;5.160;2024-01-15T09:21:38;100145.88;;;1.67;85.96
84890;BME280;75153;52.222;5.160;2024-01-15T09:24:04;100140.59;;;1.73;86.01
84890;BME280;75153;52.222;5.160;2024-01-15T09:26:29;100151.13;;;1.78;85.91
84890;BME280;75153;52.222;5.160;2024-01-15T09:28:55;100158.00;;;1.85;86.04
84890;BME280;75153;52.222;5.160;2024-01-15T09:31:20;100149.63;;;1.83;85.79
84890;BME280;75153;52.222;5.160;2024-01-15T09:33:46;100145.69;;;1.92;85.24
84890;BME280;75153;52.222;5.160;2024-01-15T09:36:12;100151.00;;;1.73;86.17
84890;BME280;75153;52.222;5.160;2024-01-15T09:38:37;100148.25;;;1.56;86.58
84890;BME280;75153;52.222;5.160;2024-01-15T09:41:05;100151.97;;;1.72;86.05
84890;BME280;75153;52.222;5.160;2024-01-15T09:43:31;100146.78;;;1.72;85.81
84890;BME280;75153;52.222;5.160;2024-01-15T09:45:57;100145.78;;;1.73;85.73
84890;BME280;75153;52.222;5.160;2024-01-15T09:48:22;100142.16;;;1.74;85.55
84890;BME280;75153;52.222;5.160;2024-01-15T09:50:48;100143.84;;;1.80;85.57
84890;BME280;75153;52.222;5.160;2024-01-15T09:53:14;100152.25;;;1.94;85.95
84890;BME280;75153;52.222;5.160;2024-01-15T09:55:41;100158.13;;;2.01;85.54
84890;BME280;75153;52.222;5.160;2024-01-15T09:58:06;100151.13;;;2.02;85.40
84890;BME280;75153;52.222;5.160;2024-01-15T10:00:33;100147.03;;;2.06;85.66
84890;BME280;75153;52.222;5.160;2024-01-15T10:03:02;100149.41;;;2.19;85.75
84890;BME280;75153;52.222;5.160;2024-01-15T10:05:28;100158.69;;;2.39;85.53
84890;BME280;75153;52.222;5.160;2024-01-15T10:07:56;100164.34;;;2.36;85.41
84890;BME280;75153;52.222;5.160;2024-01-15T10:10:21;100170.56;;;2.23;85.13
84890;BME280;75153;52.222;5.160;2024-01-15T10:12:47;100173.94;;;2.12;84.93
84890;BME280;75153;52.222;5.160;2024-01-15T10:15:13;100178.34;;;2.11;84.55
84890;BME280;75153;52.222;5.160;2024-01-15T10:17:39;100186.84;;;2.18;84.79
84890;BME280;75153;52.222;5.160;2024-01-15T10:20:11;100183.44;;;2.18;84.63
84890;BME280;75153;52.222;5.160;2024-01-15T10:22:41;100172.38;;;2.22;84.45
84890;BME280;75153;52.222;5.160;2024-01-15T10:25:11;100180.41;;;2.21;84.68
84890;BME280;75153;52.222;5.160;2024-01-15T10:27:41;100171.91;;;2.25;84.44
84890;BME280;75153;52.222;5.160;2024-01-15T10:30:10;100164.81;;;2.21;84.68
84890;BME280;75153;52.222;5.160;2024-01-15T10:32:36;100171.13;;;2.25;84.29
84890;BME280;75153;52.222;5.160;2024-01-15T10:35:01;100164.00;;;2.32;84.17
84890;BME280;75153;52.222;5.160;2024-01-15T10:37:27;100170.78;;;2.33;84.10
84890;BME280;75153;52.222;5.160;2024-01-15T10:39:52;100175.88;;;2.28;84.31
84890;BME280;75153;52.222;5.160;2024-01-15T10:42:18;100170.47;;;2.30;84.67
84890;BME280;75153;52.222;5.160;2024-01-15T10:44:44;100173.38;;;2.45;84.42
84890;BME280;75153;52.222;5.160;2024-01-15T10:47:12;100189.28;;;2.60;84.11
84890;BME280;75153;52.222;5.160;2024-01-15T10:49:37;100190.22;;;2.54;83.68
84890;BME280;75153;52.222;5.160;2024-01-15T10:52:03;100203.94;;;2.38;81.08
84890;BME280;75153;52.222;5.160;2024-01-15T10:54:29;100187.94;;;2.69;81.21
84890;BME280;75153;52.222;5.160;2024-01-15T10:56:56;100209.00;;;2.56;81.50
84890;BME280;75153;52.222;5.160;2024-01-15T10:59:21;100202.19;;;2.67;81.15
84890;BME280;75153;52.222;5.160;2024-01-15T11:01:51;100208.44;;;2.54;81.49
84890;BME280;75153;52.222;5.160;2024-01-15T11:04:20;100210.94;;;2.37;81.96
84890;BME280;75153;52.222;5.160;2024-01-15T11:06:47;100204.81;;;2.43;82.00
84890;BME280;75153;52.222;5.160;2024-01-15T11:09:14;100204.38;;;2.35;82.23
84890;BME280;75153;52.222;5.160;2024-01-15T11:11:45;100213.66;;;2.42;82.38
84890;BME280;75153;52.222;5.160;2024-01-15T11:14:35;100214.22;;;2.44;82.64
84890;BME280;75153;52.222;5.160;2024-01-15T11:17:01;100204.47;;;2.52;82.14
84890;BME280;75153;52.222;5.160;2024-01-15T11:19:35;100204.81;;;2.55;82.20
84890;BME280;75153;52.222;5.160;2024-01-15T11:22:02;100197.91;;;2.49;82.24
84890;BME280;75153;52.222;5.160;2024-01-15T11:27:03;100192.03;;;2.42;82.57
84890;BME280;75153;52.222;5.160;2024-01-15T11:29:35;100206.53;;;2.38;82.57
84890;BME280;75153;52.222;5.160;2024-01-15T11:32:05;100207.31;;;2.50;82.68
84890;BME280;75153;52.222;5.160;2024-01-15T11:34:50;100207.19;;;2.45;82.83
84890;BME280;75153;52.222;5.160;2024-01-15T11:37:16;100214.78;;;2.35;83.26
84890;BME280;75153;52.222;5.160;2024-01-15T11:39:42;100214.56;;;2.36;83.36
84890;BME280;75153;52.222;5.160;2024-01-15T11:42:13;100218.84;;;2.31;83.31
84890;BME280;75153;52.222;5.160;2024-01-15T11:44:39;100223.38;;;2.23;84.13
84890;BME280;75153;52.222;5.160;2024-01-15T11:47:05;100209.94;;;2.27;83.95
84890;BME280;75153;52.222;5.160;2024-01-15T11:52:21;100230.16;;;2.24;84.30
84890;BME280;75153;52.222;5.160;2024-01-15T11:57:37;100215.00;;;2.45;83.42
84890;BME280;75153;52.222;5.160;2024-01-15T12:00:06;100223.59;;;2.57;83.38
84890;BME280;75153;52.222;5.160;2024-01-15T12:02:41;100218.72;;;2.73;83.16
84890;BME280;75153;52.222;5.160;2024-01-15T12:05:11;100219.00;;;2.88;82.49
84890;BME280;75153;52.222;5.160;2024-01-15T12:07:43;100223.53;;;2.92;81.17
84890;BME280;75153;52.222;5.160;2024-01-15T12:10:10;100216.91;;;3.13;81.13
84890;BME280;75153;52.222;5.160;2024-01-15T12:12:44;100225.03;;;3.29;80.75
84890;BME280;75153;52.222;5.160;2024-01-15T12:15:12;100223.16;;;3.41;79.91
84890;BME280;75153;52.222;5.160;2024-01-15T12:17:38;100226.38;;;3.31;79.33
84890;BME280;75153;52.222;5.160;2024-01-15T12:20:04;100222.50;;;3.34;79.61
84890;BME280;75153;52.222;5.160;2024-01-15T12:22:30;100236.09;;;3.36;79.84
84890;BME280;75153;52.222;5.160;2024-01-15T12:24:58;100271.25;;;3.22;79.85
84890;BME280;75153;52.222;5.160;2024-01-15T12:27:24;100265.94;;;3.17;79.42
84890;BME280;75153;52.222;5.160;2024-01-15T12:29:49;100256.59;;;3.04;80.13
84890;BME280;75153;52.222;5.160;2024-01-15T12:32:15;100276.78;;;2.73;80.37
84890;BME280;75153;52.222;5.160;2024-01-15T12:34:40;100276.00;;;2.73;79.99
84890;BME280;75153;52.222;5.160;2024-01-15T12:37:09;100265.13;;;2.52;80.46
84890;BME280;75153;52.222;5.160;2024-01-15T12:39:36;100262.75;;;2.51;80.98
84890;BME280;75153;52.222;5.160;2024-01-15T12:42:02;100250.06;;;2.31;81.38
84890;BME280;75153;52.222;5.160;2024-01-15T12:44:28;100245.06;;;2.17;82.01
84890;BME280;75153;52.222;5.160;2024-01-15T12:46:53;100251.84;;;2.07;82.35
84890;BME280;75153;52.222;5.160;2024-01-15T12:49:19;100251.75;;;2.13;81.99
84890;BME280;75153;52.222;5.160;2024-01-15T12:51:52;100256.84;;;2.20;81.73
84890;BME280;75153;52.222;5.160;2024-01-15T12:54:18;100270.28;;;2.17;81.74
84890;BME280;75153;52.222;5.160;2024-01-15T12:56:43;100271.53;;;2.14;82.03
84890;BME280;75153;52.222;5.160;2024-01-15T12:59:08;100273.00;;;2.10;82.19
84890;BME280;75153;52.222;5.160;2024-01-15T13:01:34;100263.16;;;2.12;82.35